sensor_id;sensor_type;location;lat;lon;timestamp;P1;durP1;ratioP1;P2;durP2;ratioP2
16039;SDS011;8124;48.634;8.120;2024-03-22T00:03:27;47.60;;;40.00;;
16039;SDS011;8124;48.634;8.120;2024-03-22T00:08:30;44.80;;;37.10;;
16039;SDS011;8124;48.634;8.120;2024-03-22T00:13:33;45.38;;;37.47;;
16039;SDS011;8124;48.634;8.120;2024-03-22T00:18:35;44.80;;;37.22;;
16039;SDS011;8124;48.634;8.120;2024-03-22T00:23:37;43.20;;;37.05;;
16039;SDS011;8124;48.634;8.120;2024-03-22T00:28:41;43.03;;;37.10;;
16039;SDS011;8124;48.634;8.120;2024-03-22T00:33:43;44.05;;;36.17;;
16039;SDS011;8124;48.634;8.120;2024-03-22T00:38:46;44.13;;;36.33;;
16039;SDS011;8124;48.634;8.120;2024-03-22T00:43:49;42.70;;;36.22;;
16039;SDS011;8124;48.634;8.120;2024-03-22T00:48:51;42.45;;;36.03;;
16039;SDS011;8124;48.634;8.120;2024-03-22T00:53:53;42.03;;;36.10;;
16039;SDS011;8124;48.634;8.120;2024-03-22T00:58:57;43.97;;;36.20;;
16039;SDS011;8124;48.634;8.120;2024-03-22T01:03:59;41.17;;;35.60;;
16039;SDS011;8124;48.634;8.120;2024-03-22T01:09:01;41.92;;;35.70;;
16039;SDS011;8124;48.634;8.120;2024-03-22T01:14:05;41.75;;;35.50;;
16039;SDS011;8124;48.634;8.120;2024-03-22T01:19:07;41.75;;;35.72;;
16039;SDS011;8124;48.634;8.120;2024-03-22T01:24:09;42.60;;;35.95;;
16039;SDS011;8124;48.634;8.120;2024-03-22T01:29:13;42.58;;;36.65;;
16039;SDS011;8124;48.634;8.120;2024-03-22T01:34:15;42.47;;;36.40;;
16039;SDS011;8124;48.634;8.120;2024-03-22T01:39:18;43.15;;;36.05;;
16039;SDS011;8124;48.634;8.120;2024-03-22T01:44:27;41.67;;;35.67;;
16039;SDS011;8124;48.634;8.120;2024-03-22T01:49:29;41.13;;;35.53;;
16039;SDS011;8124;48.634;8.120;2024-03-22T01:54:32;41.58;;;35.50;;
16039;SDS011;8124;48.634;8.120;2024-03-22T01:59:35;42.30;;;35.50;;
16039;SDS011;8124;48.634;8.120;2024-03-22T02:04:37;41.55;;;35.40;;
16039;SDS011;8124;48.634;8.120;2024-03-22T02:09:39;40.92;;;35.28;;
16039;SDS011;8124;48.634;8.120;2024-03-22T02:14:43;42.05;;;35.45;;
16039;SDS011;8124;48.634;8.120;2024-03-22T02:19:45;42.47;;;35.63;;
16039;SDS011;8124;48.634;8.120;2024-03-22T02:24:48;41.97;;;35.63;;
16039;SDS011;8124;48.634;8.120;2024-03-22T02:29:50;41.38;;;35.55;;
16039;SDS011;8124;48.634;8.120;2024-03-22T02:34:52;43.13;;;35.60;;
16039;SDS011;8124;48.634;8.120;2024-03-22T02:39:56;45.20;;;36.25;;
16039;SDS011;8124;48.634;8.120;2024-03-22T02:44:58;41.75;;;35.85;;
16039;SDS011;8124;48.634;8.120;2024-03-22T02:50:00;42.90;;;35.92;;
16039;SDS011;8124;48.634;8.120;2024-03-22T02:55:03;42.67;;;35.75;;
16039;SDS011;8124;48.634;8.120;2024-03-22T03:00:06;42.17;;;35.35;;
16039;SDS011;8124;48.634;8.120;2024-03-22T03:05:09;42.67;;;35.83;;
16039;SDS011;8124;48.634;8.120;2024-03-22T03:10:12;41.15;;;35.63;;
16039;SDS011;8124;48.634;8.120;2024-03-22T03:15:15;43.10;;;35.67;;
16039;SDS011;8124;48.634;8.120;2024-03-22T03:20:17;42.65;;;35.72;;
16039;SDS011;8124;48.634;8.120;2024-03-22T03:25:21;42.08;;;35.80;;
16039;SDS011;8124;48.634;8.120;2024-03-22T03:30:23;40.55;;;35.17;;
16039;SDS011;8124;48.634;8.120;2024-03-22T03:35:25;40.90;;;35.10;;
16039;SDS011;8124;48.634;8.120;2024-03-22T03:40:29;41.38;;;35.83;;
16039;SDS011;8124;48.634;8.120;2024-03-22T03:45:31;42.60;;;35.22;;
16039;SDS011;8124;48.634;8.120;2024-03-22T03:50:33;42.10;;;35.83;;
16039;SDS011;8124;48.634;8.120;2024-03-22T03:55:36;41.60;;;35.97;;
16039;SDS011;8124;48.634;8.120;2024-03-22T04:00:38;41.30;;;35.40;;
16039;SDS011;8124;48.634;8.120;2024-03-22T04:05:41;43.80;;;35.38;;
16039;SDS011;8124;48.634;8.120;2024-03-22T04:10:52;42.58;;;36.60;;
16039;SDS011;8124;48.634;8.120;2024-03-22T04:15:58;41.00;;;35.42;;
16039;SDS011;8124;48.634;8.120;2024-03-22T04:21:00;41.35;;;35.50;;
16039;SDS011;8124;48.634;8.120;2024-03-22T04:26:04;41.78;;;35.70;;
16039;SDS011;8124;48.634;8.120;2024-03-22T04:31:08;42.15;;;35.45;;
16039;SDS011;8124;48.634;8.120;2024-03-22T04:36:10;42.17;;;35.70;;
16039;SDS011;8124;48.634;8.120;2024-03-22T04:41:14;41.80;;;35.72;;
16039;SDS011;8124;48.634;8.120;2024-03-22T04:46:16;43.10;;;35.88;;
16039;SDS011;8124;48.634;8.120;2024-03-22T04:51:19;41.85;;;35.70;;
16039;SDS011;8124;48.634;8.120;2024-03-22T04:56:22;42.47;;;35.90;;
16039;SDS011;8124;48.634;8.120;2024-03-22T05:01:24;41.83;;;35.33;;
16039;SDS011;8124;48.634;8.120;2024-03-22T05:06:26;41.53;;;35.88;;
16039;SDS011;8124;48.634;8.120;2024-03-22T05:11:30;42.17;;;35.38;;
16039;SDS011;8124;48.634;8.120;2024-03-22T05:16:32;41.80;;;35.42;;
16039;SDS011;8124;48.634;8.120;2024-03-22T05:21:34;43.47;;;36.30;;
16039;SDS011;8124;48.634;8.120;2024-03-22T05:26:38;41.92;;;35.75;;
16039;SDS011;8124;48.634;8.120;2024-03-22T05:31:45;42.13;;;36.42;;
16039;SDS011;8124;48.634;8.120;2024-03-22T05:36:48;42.45;;;36.35;;
16039;SDS011;8124;48.634;8.120;2024-03-22T05:41:52;43.58;;;36.63;;
16039;SDS011;8124;48.634;8.120;2024-03-22T05:46:54;46.33;;;37.13;;
16039;SDS011;8124;48.634;8.120;2024-03-22T05:51:57;43.45;;;37.13;;
16039;SDS011;8124;48.634;8.120;2024-03-22T05:57:00;43.38;;;36.97;;
16039;SDS011;8124;48.634;8.120;2024-03-22T06:02:02;44.30;;;35.83;;
16039;SDS011;8124;48.634;8.120;2024-03-22T06:07:04;41.75;;;36.13;;
16039;SDS011;8124;48.634;8.120;2024-03-22T06:12:08;43.67;;;36.50;;
16039;SDS011;8124;48.634;8.120;2024-03-22T06:17:10;43.17;;;36.45;;
16039;SDS011;8124;48.634;8.120;2024-03-22T06:22:12;42.60;;;36.28;;
16039;SDS011;8124;48.634;8.120;2024-03-22T06:27:16;42.80;;;36.53;;
16039;SDS011;8124;48.634;8.120;2024-03-22T06:32:18;43.65;;;36.72;;
16039;SDS011;8124;48.634;8.120;2024-03-22T06:37:20;42.95;;;36.92;;
16039;SDS011;8124;48.634;8.120;2024-03-22T06:42:23;44.08;;;37.50;;
16039;SDS011;8124;48.634;8.120;2024-03-22T06:47:27;44.35;;;37.25;;
16039;SDS011;8124;48.634;8.120;2024-03-22T06:52:29;43.90;;;37.55;;
16039;SDS011;8124;48.634;8.120;2024-03-22T06:57:32;45.63;;;37.35;;
16039;SDS011;8124;48.634;8.120;2024-03-22T07:02:35;46.00;;;38.50;;
16039;SDS011;8124;48.634;8.120;2024-03-22T07:07:37;47.08;;;39.20;;
16039;SDS011;8124;48.634;8.120;2024-03-22T07:12:40;44.20;;;37.03;;
16039;SDS011;8124;48.634;8.120;2024-03-22T07:17:43;45.97;;;37.55;;
16039;SDS011;8124;48.634;8.120;2024-03-22T07:22:45;44.88;;;38.15;;
16039;SDS011;8124;48.634;8.120;2024-03-22T07:27:48;43.72;;;37.55;;
16039;SDS011;8124;48.634;8.120;2024-03-22T07:32:50;47.13;;;37.88;;
16039;SDS011;8124;48.634;8.120;2024-03-22T07:37:52;48.60;;;38.17;;
16039;SDS011;8124;48.634;8.120;2024-03-22T07:42:56;46.47;;;38.55;;
16039;SDS011;8124;48.634;8.120;2024-03-22T07:48:00;46.17;;;38.33;;
16039;SDS011;8124;48.634;8.120;2024-03-22T07:53:02;47.08;;;38.78;;
16039;SDS011;8124;48.634;8.120;2024-03-22T07:58:06;46.60;;;38.10;;
16039;SDS011;8124;48.634;8.120;2024-03-22T08:03:08;46.10;;;38.03;;
16039;SDS011;8124;48.634;8.120;2024-03-22T08:08:16;45.95;;;38.08;;
16039;SDS011;8124;48.634;8.120;2024-03-22T08:13:19;44.50;;;37.75;;
16039;SDS011;8124;48.634;8.120;2024-03-22T08:18:24;48.35;;;39.85;;
16039;SDS011;8124;48.634;8.120;2024-03-22T08:23:29;50.05;;;38.25;;
16039;SDS011;8124;48.634;8.120;2024-03-22T08:28:35;46.95;;;38.50;;
16039;SDS011;8124;48.634;8.120;2024-03-22T08:33:39;46.83;;;38.88;;
16039;SDS011;8124;48.634;8.120;2024-03-22T08:38:41;49.13;;;39.40;;
16039;SDS011;8124;48.634;8.120;2024-03-22T08:43:45;49.30;;;39.22;;
16039;SDS011;8124;48.634;8.120;2024-03-22T08:48:49;47.67;;;38.83;;
16039;SDS011;8124;48.634;8.120;2024-03-22T08:53:51;47.35;;;38.38;;
16039;SDS011;8124;48.634;8.120;2024-03-22T08:58:55;44.72;;;38.65;;
16039;SDS011;8124;48.634;8.120;2024-03-22T09:03:57;49.10;;;38.97;;
16039;SDS011;8124;48.634;8.120;2024-03-22T09:08:59;46.97;;;38.42;;
16039;SDS011;8124;48.634;8.120;2024-03-22T09:14:02;46.22;;;38.47;;
16039;SDS011;8124;48.634;8.120;2024-03-22T09:19:04;46.70;;;39.45;;
16039;SDS011;8124;48.634;8.120;2024-03-22T09:24:06;46.83;;;39.05;;
16039;SDS011;8124;48.634;8.120;2024-03-22T09:29:10;49.28;;;39.20;;
16039;SDS011;8124;48.634;8.120;2024-03-22T09:34:12;45.35;;;38.65;;
16039;SDS011;8124;48.634;8.120;2024-03-22T09:39:16;46.78;;;39.00;;
16039;SDS011;8124;48.634;8.120;2024-03-22T09:44:19;46.25;;;39.50;;
16039;SDS011;8124;48.634;8.120;2024-03-22T09:49:22;47.00;;;39.00;;
16039;SDS011;8124;48.634;8.120;2024-03-22T09:54:25;46.40;;;39.05;;
16039;SDS011;8124;48.634;8.120;2024-03-22T09:59:28;48.85;;;39.78;;
16039;SDS011;8124;48.634;8.120;2024-03-22T10:04:30;47.40;;;39.55;;
16039;SDS011;8124;48.634;8.120;2024-03-22T10:09:32;49.63;;;38.90;;
16039;SDS011;8124;48.634;8.120;2024-03-22T10:14:36;48.72;;;40.08;;
16039;SDS011;8124;48.634;8.120;2024-03-22T10:19:40;49.75;;;39.85;;
16039;SDS011;8124;48.634;8.120;2024-03-22T10:24:42;46.95;;;39.05;;
16039;SDS011;8124;48.634;8.120;2024-03-22T10:29:46;50.83;;;39.25;;
16039;SDS011;8124;48.634;8.120;2024-03-22T10:34:49;50.65;;;39.33;;
16039;SDS011;8124;48.634;8.120;2024-03-22T10:39:52;49.90;;;39.90;;
16039;SDS011;8124;48.634;8.120;2024-03-22T10:44:56;46.90;;;39.05;;
16039;SDS011;8124;48.634;8.120;2024-03-22T10:50:01;45.70;;;38.30;;
16039;SDS011;8124;48.634;8.120;2024-03-22T10:55:07;44.58;;;38.22;;
16039;SDS011;8124;48.634;8.120;2024-03-22T11:00:18;45.47;;;38.08;;
16039;SDS011;8124;48.634;8.120;2024-03-22T11:05:29;45.03;;;37.88;;
16039;SDS011;8124;48.634;8.120;2024-03-22T11:10:33;47.50;;;38.42;;
16039;SDS011;8124;48.634;8.120;2024-03-22T11:15:37;45.58;;;38.10;;
16039;SDS011;8124;48.634;8.120;2024-03-22T11:20:39;47.10;;;38.00;;
16039;SDS011;8124;48.634;8.120;2024-03-22T11:25:41;44.88;;;38.33;;
16039;SDS011;8124;48.634;8.120;2024-03-22T11:30:44;44.47;;;37.95;;
16039;SDS011;8124;48.634;8.120;2024-03-22T11:35:47;45.03;;;38.35;;
16039;SDS011;8124;48.634;8.120;2024-03-22T11:40:49;46.15;;;38.83;;
16039;SDS011;8124;48.634;8.120;2024-03-22T11:45:53;45.45;;;38.78;;
16039;SDS011;8124;48.634;8.120;2024-03-22T11:50:56;45.35;;;38.67;;
16039;SDS011;8124;48.634;8.120;2024-03-22T11:56:00;46.33;;;38.10;;
16039;SDS011;8124;48.634;8.120;2024-03-22T12:01:05;45.85;;;38.72;;
16039;SDS011;8124;48.634;8.120;2024-03-22T12:06:08;44.38;;;38.08;;
16039;SDS011;8124;48.634;8.120;2024-03-22T12:11:12;45.60;;;38.15;;
16039;SDS011;8124;48.634;8.120;2024-03-22T12:16:16;44.88;;;38.65;;
16039;SDS011;8124;48.634;8.120;2024-03-22T12:21:18;45.75;;;38.58;;
16039;SDS011;8124;48.634;8.120;2024-03-22T12:26:20;45.63;;;38.45;;
16039;SDS011;8124;48.634;8.120;2024-03-22T12:31:24;47.20;;;38.38;;
16039;SDS011;8124;48.634;8.120;2024-03-22T12:36:26;45.17;;;38.05;;
16039;SDS011;8124;48.634;8.120;2024-03-22T12:41:28;44.17;;;38.10;;
16039;SDS011;8124;48.634;8.120;2024-03-22T12:46:32;48.35;;;38.10;;
16039;SDS011;8124;48.634;8.120;2024-03-22T12:51:34;45.30;;;38.25;;
16039;SDS011;8124;48.634;8.120;2024-03-22T12:56:38;45.03;;;38.22;;
16039;SDS011;8124;48.634;8.120;2024-03-22T13:01:41;46.03;;;38.40;;
16039;SDS011;8124;48.634;8.120;2024-03-22T13:06:44;44.95;;;38.55;;
16039;SDS011;8124;48.634;8.120;2024-03-22T13:11:48;49.65;;;38.60;;
16039;SDS011;8124;48.634;8.120;2024-03-22T13:16:51;45.67;;;38.55;;
16039;SDS011;8124;48.634;8.120;2024-03-22T13:21:53;44.10;;;38.08;;
16039;SDS011;8124;48.634;8.120;2024-03-22T13:26:55;45.67;;;38.25;;
16039;SDS011;8124;48.634;8.120;2024-03-22T13:31:59;45.50;;;38.47;;
16039;SDS011;8124;48.634;8.120;2024-03-22T13:37:01;44.97;;;38.38;;
16039;SDS011;8124;48.634;8.120;2024-03-22T13:42:03;49.05;;;38.80;;
16039;SDS011;8124;48.634;8.120;2024-03-22T13:47:07;45.50;;;38.70;;
16039;SDS011;8124;48.634;8.120;2024-03-22T13:52:09;45.78;;;38.67;;
16039;SDS011;8124;48.634;8.120;2024-03-22T13:57:11;45.90;;;38.40;;
16039;SDS011;8124;48.634;8.120;2024-03-22T14:02:14;46.83;;;38.75;;
16039;SDS011;8124;48.634;8.120;2024-03-22T14:07:16;46.28;;;38.95;;
16039;SDS011;8124;48.634;8.120;2024-03-22T14:12:18;45.22;;;38.60;;
16039;SDS011;8124;48.634;8.120;2024-03-22T14:17:22;46.95;;;38.92;;
16039;SDS011;8124;48.634;8.120;2024-03-22T14:22:24;48.15;;;38.90;;
16039;SDS011;8124;48.634;8.120;2024-03-22T14:27:26;45.42;;;38.13;;
16039;SDS011;8124;48.634;8.120;2024-03-22T14:32:29;45.92;;;38.45;;
16039;SDS011;8124;48.634;8.120;2024-03-22T14:37:31;46.10;;;38.65;;
16039;SDS011;8124;48.634;8.120;2024-03-22T14:42:33;45.63;;;38.20;;
16039;SDS011;8124;48.634;8.120;2024-03-22T14:47:37;50.38;;;38.78;;
16039;SDS011;8124;48.634;8.120;2024-03-22T14:52:39;45.78;;;38.95;;
16039;SDS011;8124;48.634;8.120;2024-03-22T14:57:41;46.05;;;39.20;;
16039;SDS011;8124;48.634;8.120;2024-03-22T15:02:45;47.92;;;39.08;;
16039;SDS011;8124;48.634;8.120;2024-03-22T15:07:47;44.60;;;38.88;;
16039;SDS011;8124;48.634;8.120;2024-03-22T15:12:49;46.33;;;38.80;;
16039;SDS011;8124;48.634;8.120;2024-03-22T15:17:53;45.88;;;39.10;;
16039;SDS011;8124;48.634;8.120;2024-03-22T15:22:55;51.20;;;39.17;;
16039;SDS011;8124;48.634;8.120;2024-03-22T15:27:58;46.60;;;38.70;;
16039;SDS011;8124;48.634;8.120;2024-03-22T15:33:01;48.05;;;38.55;;
16039;SDS011;8124;48.634;8.120;2024-03-22T15:38:04;45.63;;;38.65;;
16039;SDS011;8124;48.634;8.120;2024-03-22T15:43:06;45.53;;;38.78;;
16039;SDS011;8124;48.634;8.120;2024-03-22T15:48:10;45.35;;;38.90;;
16039;SDS011;8124;48.634;8.120;2024-03-22T15:53:12;45.58;;;38.58;;
16039;SDS011;8124;48.634;8.120;2024-03-22T15:58:14;47.17;;;39.92;;
16039;SDS011;8124;48.634;8.120;2024-03-22T16:03:17;46.83;;;39.95;;
16039;SDS011;8124;48.634;8.120;2024-03-22T16:08:19;46.72;;;39.70;;
16039;SDS011;8124;48.634;8.120;2024-03-22T16:13:22;48.40;;;39.67;;
16039;SDS011;8124;48.634;8.120;2024-03-22T16:18:26;46.42;;;40.13;;
16039;SDS011;8124;48.634;8.120;2024-03-22T16:23:28;46.55;;;40.08;;
16039;SDS011;8124;48.634;8.120;2024-03-22T16:28:30;46.70;;;39.67;;
16039;SDS011;8124;48.634;8.120;2024-03-22T16:33:33;46.55;;;39.97;;
16039;SDS011;8124;48.634;8.120;2024-03-22T16:38:36;46.55;;;39.80;;
16039;SDS011;8124;48.634;8.120;2024-03-22T16:43:38;48.10;;;40.28;;
16039;SDS011;8124;48.634;8.120;2024-03-22T16:48:41;48.22;;;40.03;;
16039;SDS011;8124;48.634;8.120;2024-03-22T16:53:44;47.30;;;40.05;;
16039;SDS011;8124;48.634;8.120;2024-03-22T16:58:46;46.78;;;39.78;;
16039;SDS011;8124;48.634;8.120;2024-03-22T17:03:49;46.03;;;39.97;;
16039;SDS011;8124;48.634;8.120;2024-03-22T17:08:51;47.70;;;39.42;;
16039;SDS011;8124;48.634;8.120;2024-03-22T17:13:53;46.40;;;39.78;;
16039;SDS011;8124;48.634;8.120;2024-03-22T17:18:58;47.75;;;39.70;;
16039;SDS011;8124;48.634;8.120;2024-03-22T17:24:00;46.38;;;39.65;;
16039;SDS011;8124;48.634;8.120;2024-03-22T17:29:02;48.17;;;39.95;;
16039;SDS011;8124;48.634;8.120;2024-03-22T17:34:06;47.50;;;39.75;;
16039;SDS011;8124;48.634;8.120;2024-03-22T17:39:08;44.97;;;38.90;;
16039;SDS011;8124;48.634;8.120;2024-03-22T17:44:10;45.95;;;39.00;;
16039;SDS011;8124;48.634;8.120;2024-03-22T17:49:14;49.30;;;40.58;;
16039;SDS011;8124;48.634;8.120;2024-03-22T17:54:16;47.00;;;40.00;;
16039;SDS011;8124;48.634;8.120;2024-03-22T17:59:18;48.78;;;40.78;;
16039;SDS011;8124;48.634;8.120;2024-03-22T18:04:21;49.22;;;40.42;;
16039;SDS011;8124;48.634;8.120;2024-03-22T18:09:23;48.30;;;40.42;;
16039;SDS011;8124;48.634;8.120;2024-03-22T18:14:25;48.13;;;39.47;;
16039;SDS011;8124;48.634;8.120;2024-03-22T18:19:29;46.63;;;39.72;;
16039;SDS011;8124;48.634;8.120;2024-03-22T18:24:31;46.13;;;39.78;;
16039;SDS011;8124;48.634;8.120;2024-03-22T18:29:33;62.70;;;46.83;;
16039;SDS011;8124;48.634;8.120;2024-03-22T18:34:37;51.50;;;42.05;;
16039;SDS011;8124;48.634;8.120;2024-03-22T18:39:39;47.55;;;39.95;;
16039;SDS011;8124;48.634;8.120;2024-03-22T18:44:41;44.83;;;38.28;;
16039;SDS011;8124;48.634;8.120;2024-03-22T18:49:44;49.22;;;43.20;;
16039;SDS011;8124;48.634;8.120;2024-03-22T18:54:55;45.85;;;39.65;;
16039;SDS011;8124;48.634;8.120;2024-03-22T18:59:58;45.60;;;38.90;;
16039;SDS011;8124;48.634;8.120;2024-03-22T19:05:02;44.30;;;38.42;;
16039;SDS011;8124;48.634;8.120;2024-03-22T19:10:05;49.35;;;38.30;;
16039;SDS011;8124;48.634;8.120;2024-03-22T19:15:08;43.85;;;38.17;;
16039;SDS011;8124;48.634;8.120;2024-03-22T19:20:12;44.53;;;37.92;;
16039;SDS011;8124;48.634;8.120;2024-03-22T19:25:14;43.83;;;37.83;;
16039;SDS011;8124;48.634;8.120;2024-03-22T19:30:17;44.40;;;38.15;;
16039;SDS011;8124;48.634;8.120;2024-03-22T19:35:24;48.17;;;39.90;;
16039;SDS011;8124;48.634;8.120;2024-03-22T19:40:26;45.60;;;39.17;;
16039;SDS011;8124;48.634;8.120;2024-03-22T19:45:29;47.65;;;40.47;;
16039;SDS011;8124;48.634;8.120;2024-03-22T19:50:32;51.25;;;40.38;;
16039;SDS011;8124;48.634;8.120;2024-03-22T19:55:35;46.85;;;39.63;;
16039;SDS011;8124;48.634;8.120;2024-03-22T20:00:37;47.35;;;40.88;;
16039;SDS011;8124;48.634;8.120;2024-03-22T20:05:40;46.30;;;39.28;;
16039;SDS011;8124;48.634;8.120;2024-03-22T20:10:42;47.92;;;40.10;;
16039;SDS011;8124;48.634;8.120;2024-03-22T20:15:45;46.67;;;39.10;;
16039;SDS011;8124;48.634;8.120;2024-03-22T20:20:49;46.55;;;39.00;;
16039;SDS011;8124;48.634;8.120;2024-03-22T20:25:51;45.03;;;38.92;;
16039;SDS011;8124;48.634;8.120;2024-03-22T20:30:53;45.72;;;38.42;;
16039;SDS011;8124;48.634;8.120;2024-03-22T20:35:57;44.97;;;38.30;;
